Terminal Aerodrome Forecast
Issued by NWS

Home | Current Version | Previous Version | Text Only | Print | Product List | Glossary On
Versions: 1 2 3 4 5 6 7 8 9 10 11 12 13 14 15 16 17 18 19 20 21 22 23 24 25 26 27 28 29 30 31 32 33 34 35
000
FTUS45 KGJT 272122 AAA
TAFDRO
TAF AMD
KDRO 272122Z 2721/2818 27012G20KT P6SM VCTS SCT060CB OVC090
      TEMPO 2721/2724 VRB15G25KT -TSRA SCT045 BKN060CB
     FM280000 31008KT P6SM VCSH SCT060 BKN100
     FM280200 31004KT P6SM FEW100
     FM280400 01004KT P6SM SKC=

USA.gov is the U.S. government's official web portal to all federal, state and local government web resources and services.